Time;durP1;ratioP1;P1;durP2;ratioP2;P2;SDS_P1;SDS_P2;PMS_P1;PMS_P2;Temp;Humidity;BMP_temperature;BMP_pressure;BME280_temperature;BME280_humidity;BME280_pressure;Samples;Min_cycle;Max_cycle;Signal;HPM_P1;HPM_P2
2023/10/02 00:01:48;;;;;;;3.88;1.10;;;16.40;99.90;;;;;;5136835;27;20410;-59
2023/10/02 00:04:18;;;;;;;4.03;1.30;;;16.30;1.00;;;;;;5137807;27;20509;-59
2023/10/02 00:06:46;;;;;;;2.70;1.20;;;16.30;99.90;;;;;;5137572;27;20518;-59
2023/10/02 00:09:14;;;;;;;2.20;1.00;;;16.30;1.00;;;;;;5137315;27;20853;-59
2023/10/02 00:11:44;;;;;;;3.05;1.00;;;16.30;1.00;;;;;;5136954;27;20419;-58
2023/10/02 00:14:22;;;;;;;2.88;0.90;;;16.40;1.00;;;;;;5136845;27;20485;-59
2023/10/02 00:17:07;;;;;;;2.95;0.90;;;16.40;99.90;;;;;;5135622;27;20416;-59
2023/10/02 00:19:36;;;;;;;4.30;1.40;;;16.50;1.00;;;;;;5136175;27;20733;-59
2023/10/02 00:22:07;;;;;;;4.82;1.00;;;16.60;1.00;;;;;;5135937;27;20431;-59
2023/10/02 00:24:37;;;;;;;2.85;1.00;;;16.70;99.90;;;;;;5135241;27;20446;-59
2023/10/02 00:27:07;;;;;;;3.03;1.10;;;16.80;59.00;;;;;;5135971;27;20433;-59
2023/10/02 00:29:35;;;;;;;2.50;1.00;;;16.80;1.00;;;;;;5135786;27;20446;-58
2023/10/02 00:32:10;;;;;;;3.90;1.10;;;16.80;17.60;;;;;;5136918;27;20771;-60
2023/10/02 00:34:39;;;;;;;3.20;1.00;;;16.80;1.00;;;;;;5137441;27;20717;-58
2023/10/02 00:37:12;;;;;;;2.60;1.10;;;16.80;1.00;;;;;;5137696;27;20475;-58
2023/10/02 00:39:40;;;;;;;2.05;0.90;;;16.80;1.00;;;;;;5137176;27;20452;-58
2023/10/02 00:42:24;;;;;;;2.70;1.02;;;16.80;25.20;;;;;;5137047;27;20518;-60
2023/10/02 00:44:52;;;;;;;5.10;1.20;;;16.80;68.60;;;;;;5135972;27;20718;-60
2023/10/02 00:52:58;;;;;;;4.55;1.10;;;16.50;1.00;;;;;;5135914;27;20398;-60
2023/10/02 00:55:30;;;;;;;4.45;1.20;;;16.60;3.80;;;;;;5135872;27;20415;-60
2023/10/02 00:57:59;;;;;;;3.38;1.00;;;16.50;1.00;;;;;;5136601;27;20461;-60
2023/10/02 01:00:36;;;;;;;3.97;1.15;;;16.50;99.90;;;;;;5136580;27;20846;-61
2023/10/02 01:03:05;;;;;;;3.38;1.20;;;16.40;99.90;;;;;;5136779;27;20431;-60
2023/10/02 01:05:47;;;;;;;4.70;1.10;;;16.30;99.90;;;;;;5136356;27;20505;-60
2023/10/02 01:08:24;;;;;;;2.97;1.10;;;16.30;1.00;;;;;;5136510;27;20422;-60
2023/10/02 01:10:59;;;;;;;3.90;1.40;;;16.30;1.00;;;;;;5136193;27;20430;-60
2023/10/02 01:13:32;;;;;;;2.95;1.00;;;16.30;1.00;;;;;;5136734;27;20509;-59
2023/10/02 01:16:03;;;;;;;2.70;1.20;;;16.30;1.00;;;;;;5136056;27;20858;-61
2023/10/02 01:18:31;;;;;;;2.80;1.00;;;16.40;1.00;;;;;;5136116;27;20463;-59
2023/10/02 01:21:00;;;;;;;2.60;0.90;;;16.30;1.00;;;;;;5135599;27;20460;-60
2023/10/02 01:23:28;;;;;;;2.60;1.00;;;16.20;1.00;;;;;;5136378;27;20487;-60
2023/10/02 01:26:00;;;;;;;1.60;0.95;;;16.10;1.00;;;;;;5136257;27;20501;-60
2023/10/02 01:28:49;;;;;;;2.97;1.00;;;16.00;99.90;;;;;;5136454;27;20848;-60
2023/10/02 01:33:59;;;;;;;4.65;1.40;;;16.00;99.90;;;;;;5135974;27;20434;-60
2023/10/02 01:36:28;;;;;;;4.00;1.30;;;16.10;99.90;;;;;;5136679;27;20767;-58
2023/10/02 01:38:59;;;;;;;1.63;0.80;;;16.00;99.90;;;;;;5136177;27;20464;-60
2023/10/02 01:41:28;;;;;;;3.50;1.20;;;16.00;99.90;;;;;;5135018;28;20471;-60
2023/10/02 01:43:57;;;;;;;2.40;1.10;;;16.00;99.90;;;;;;5134752;28;20425;-60
2023/10/02 01:46:28;;;;;;;4.03;1.10;;;16.00;99.90;;;;;;5128934;28;20493;-60
2023/10/02 01:48:55;;;;;;;3.20;1.10;;;16.10;99.90;;;;;;5135757;28;20433;-59
2023/10/02 01:51:26;;;;;;;3.80;1.30;;;16.10;99.90;;;;;;5135523;28;20422;-60
2023/10/02 01:53:56;;;;;;;2.13;1.10;;;16.10;99.90;;;;;;5136325;28;20418;-60
2023/10/02 01:56:25;;;;;;;3.33;1.08;;;16.10;99.90;;;;;;5136080;28;20439;-60
2023/10/02 01:59:08;;;;;;;2.90;1.20;;;16.20;99.90;;;;;;5135334;28;20418;-59
2023/10/02 02:01:46;;;;;;;4.70;1.33;;;16.10;99.90;;;;;;5130281;28;20417;-60
2023/10/02 02:04:14;;;;;;;4.30;1.30;;;16.10;1.00;;;;;;5135913;28;20502;-60
2023/10/02 02:06:51;;;;;;;3.22;1.10;;;16.00;1.00;;;;;;5135977;28;20517;-60
2023/10/02 02:09:23;;;;;;;3.00;1.10;;;16.00;1.00;;;;;;5135694;28;20475;-60
2023/10/02 02:12:05;;;;;;;3.83;1.20;;;16.00;1.00;;;;;;5134988;28;20509;-59
2023/10/02 02:14:34;;;;;;;3.17;1.20;;;15.90;1.00;;;;;;5135963;28;20422;-59
2023/10/02 02:17:03;;;;;;;3.60;1.10;;;15.90;1.00;;;;;;5135753;28;20414;-59
2023/10/02 02:19:30;;;;;;;2.70;1.00;;;16.00;1.00;;;;;;5135189;28;20788;-60
2023/10/02 02:21:58;;;;;;;3.63;1.08;;;15.80;1.00;;;;;;5134050;28;20438;-60
2023/10/02 02:24:25;;;;;;;4.60;1.20;;;15.80;1.00;;;;;;5132028;28;20423;-60
2023/10/02 02:27:04;;;;;;;5.43;1.10;;;15.80;1.00;;;;;;5133895;28;21042;-60
2023/10/02 02:29:34;;;;;;;3.93;1.20;;;15.80;1.00;;;;;;5133636;28;20422;-60
2023/10/02 02:32:02;;;;;;;3.20;1.00;;;15.70;1.00;;;;;;5133851;28;20406;-60
2023/10/02 02:34:29;;;;;;;2.78;1.02;;;15.70;1.00;;;;;;5134333;28;20410;-60
2023/10/02 02:36:57;;;;;;;3.30;1.30;;;15.60;1.00;;;;;;5135654;28;20419;-59
2023/10/02 02:39:24;;;;;;;3.08;1.20;;;15.60;1.00;;;;;;5135560;28;20444;-60
2023/10/02 02:42:08;;;;;;;3.00;1.20;;;15.50;1.00;;;;;;5126405;28;20811;-60
2023/10/02 02:44:40;;;;;;;3.92;1.33;;;15.40;1.00;;;;;;5135449;28;20430;-60
2023/10/02 02:47:08;;;;;;;2.60;1.20;;;15.40;1.00;;;;;;5137470;27;20440;-60
2023/10/02 02:49:51;;;;;;;3.88;1.20;;;15.40;1.00;;;;;;5139251;27;20407;-60
2023/10/02 02:52:20;;;;;;;3.80;1.30;;;15.40;1.00;;;;;;5137991;27;20463;-60
2023/10/02 02:54:48;;;;;;;3.20;1.20;;;15.40;1.00;;;;;;5139169;27;20904;-59
2023/10/02 02:57:26;;;;;;;3.60;1.25;;;15.30;1.00;;;;;;5138742;27;20419;-60
2023/10/02 03:00:24;;;;;;;4.05;1.10;;;15.20;1.00;;;;;;5139149;27;20490;-60
2023/10/02 03:02:46;;;;;;;3.13;1.30;;;15.20;1.00;;;;;;5138692;27;20426;-60
2023/10/02 03:05:16;;;;;;;4.07;1.20;;;15.20;1.00;;;;;;5138833;27;20834;-60
2023/10/02 03:07:44;;;;;;;4.55;1.20;;;15.20;1.00;;;;;;5138106;27;20513;-60
2023/10/02 03:10:13;;;;;;;3.40;1.20;;;15.20;1.00;;;;;;5137646;27;20902;-60
2023/10/02 03:12:44;;;;;;;3.88;1.30;;;15.30;1.00;;;;;;5136853;27;20411;-60
2023/10/02 03:15:15;;;;;;;3.08;1.20;;;15.50;1.00;;;;;;5136926;27;20433;-60
2023/10/02 03:17:42;;;;;;;4.50;1.00;;;15.50;1.00;;;;;;5137171;27;20517;-59
2023/10/02 03:20:22;;;;;;;2.53;1.00;;;15.40;1.00;;;;;;5137297;27;20743;-60
2023/10/02 03:22:54;;;;;;;4.95;1.10;;;15.40;1.00;;;;;;5136720;27;20426;-58
2023/10/02 03:25:40;;;;;;;2.80;1.10;;;15.30;1.00;;;;;;5131260;27;20487;-60
2023/10/02 03:28:16;;;;;;;3.92;1.20;;;15.20;1.00;;;;;;5138880;27;20814;-60
2023/10/02 03:30:47;;;;;;;2.72;1.00;;;15.10;1.00;;;;;;5138620;27;20774;-59
2023/10/02 03:33:21;;;;;;;3.80;1.20;;;14.90;1.00;;;;;;5138733;27;20509;-60
2023/10/02 03:35:58;;;;;;;2.80;1.10;;;14.80;1.00;;;;;;5138704;27;20414;-60
2023/10/02 03:38:29;;;;;;;4.45;1.10;;;14.80;1.00;;;;;;5138173;27;20426;-60
2023/10/02 03:40:58;;;;;;;2.67;1.17;;;14.80;1.00;;;;;;5138528;27;20418;-60
2023/10/02 03:43:35;;;;;;;3.83;1.00;;;14.80;1.00;;;;;;5137929;27;20429;-60
2023/10/02 03:46:06;;;;;;;4.70;1.40;;;14.80;1.00;;;;;;5137862;27;20501;-60
2023/10/02 03:48:33;;;;;;;4.95;1.60;;;14.80;1.00;;;;;;5137547;27;20429;-59
2023/10/02 03:51:04;;;;;;;3.78;1.00;;;14.80;1.00;;;;;;5138145;27;20414;-60
2023/10/02 03:53:31;;;;;;;2.45;1.00;;;14.80;1.00;;;;;;5138005;27;20841;-60
2023/10/02 03:55:59;;;;;;;3.90;1.20;;;14.80;1.00;;;;;;5138045;27;20428;-60
2023/10/02 03:58:38;;;;;;;3.63;1.50;;;14.80;1.00;;;;;;5138515;27;20421;-59
2023/10/02 04:01:08;;;;;;;3.45;1.40;;;14.90;1.00;;;;;;5138124;27;20465;-59
2023/10/02 04:03:52;;;;;;;3.90;1.20;;;14.90;1.00;;;;;;5137822;27;20431;-60
2023/10/02 04:06:33;;;;;;;2.65;1.20;;;14.90;1.00;;;;;;5138178;27;20427;-60
2023/10/02 04:09:09;;;;;;;1.90;1.10;;;14.90;1.00;;;;;;5137680;27;20429;-60
2023/10/02 04:11:38;;;;;;;2.50;1.10;;;14.90;1.00;;;;;;5137738;27;20422;-61
2023/10/02 04:14:17;;;;;;;3.05;1.40;;;14.90;1.00;;;;;;5137034;27;20446;-60
2023/10/02 04:16:48;;;;;;;3.03;1.13;;;14.90;1.00;;;;;;5136261;27;20414;-65
2023/10/02 04:19:15;;;;;;;2.25;1.30;;;14.90;1.00;;;;;;5136695;27;20410;-62
2023/10/02 04:21:45;;;;;;;3.35;1.20;;;14.80;1.00;;;;;;5137995;27;20422;-64
2023/10/02 04:24:13;;;;;;;3.70;1.20;;;14.80;1.00;;;;;;5136218;27;20438;-64
2023/10/02 04:26:41;;;;;;;4.15;1.50;;;14.70;1.00;;;;;;5136259;27;20522;-64
2023/10/02 04:29:26;;;;;;;4.00;1.30;;;14.60;1.00;;;;;;5135936;27;20449;-65
2023/10/02 04:32:14;;;;;;;3.88;1.20;;;14.50;1.00;;;;;;5136267;27;20414;-64
2023/10/02 04:34:50;;;;;;;3.40;1.30;;;14.40;1.00;;;;;;5136650;27;20418;-64
2023/10/02 04:37:19;;;;;;;3.93;1.30;;;14.30;1.00;;;;;;5136099;27;20441;-64
2023/10/02 04:40:13;;;;;;;4.15;1.00;;;14.20;1.00;;;;;;5135965;27;20734;-65
2023/10/02 04:45:21;;;;;;;5.30;1.40;;;14.10;19.40;;;;;;5135911;27;20398;-64
2023/10/02 04:47:49;;;;;;;4.72;1.30;;;14.20;16.10;;;;;;5136790;27;20418;-65
2023/10/02 04:50:35;;;;;;;2.65;1.10;;;14.20;16.30;;;;;;5136192;27;20434;-64
2023/10/02 04:53:19;;;;;;;5.32;1.20;;;14.20;12.10;;;;;;5136806;27;20407;-64
2023/10/02 04:55:48;;;;;;;4.50;1.30;;;14.30;5.10;;;;;;5136806;27;20505;-64
2023/10/02 04:58:19;;;;;;;3.20;1.10;;;14.30;1.00;;;;;;5136014;27;20454;-64
2023/10/02 05:03:30;;;;;;;3.72;1.10;;;14.30;1.00;;;;;;5134279;27;20421;-64
2023/10/02 05:05:58;;;;;;;4.32;1.42;;;14.30;1.00;;;;;;5134956;27;20513;-65
2023/10/02 05:08:33;;;;;;;3.63;1.50;;;14.40;1.00;;;;;;5134963;27;20618;-63
2023/10/02 05:11:07;;;;;;;4.43;1.30;;;14.40;1.00;;;;;;5134329;27;20414;-62
2023/10/02 05:16:33;;;;;;;2.60;1.30;;;14.30;1.00;;;;;;5120676;27;20399;-64
2023/10/02 05:19:04;;;;;;;3.43;1.20;;;14.20;15.80;;;;;;5134459;27;20430;-63
2023/10/02 05:21:38;;;;;;;4.18;1.40;;;14.20;17.30;;;;;;5134251;27;21006;-63
2023/10/02 05:24:07;;;;;;;2.50;1.10;;;14.20;15.80;;;;;;5134975;27;20487;-63
2023/10/02 05:26:36;;;;;;;3.90;1.50;;;14.20;14.60;;;;;;5134682;27;20429;-63
2023/10/02 05:29:06;;;;;;;5.22;1.20;;;14.30;11.40;;;;;;5136447;27;20434;-64
2023/10/02 05:31:35;;;;;;;4.43;1.10;;;14.30;1.00;;;;;;5134137;27;20419;-64
2023/10/02 05:34:09;;;;;;;5.43;1.40;;;14.30;1.10;;;;;;5135574;27;20596;-64
2023/10/02 05:36:54;;;;;;;3.42;1.25;;;14.30;1.00;;;;;;5134014;27;20422;-64
2023/10/02 05:39:31;;;;;;;4.82;1.20;;;14.30;5.20;;;;;;5133329;27;20425;-64
2023/10/02 05:42:05;;;;;;;4.03;1.40;;;14.30;8.90;;;;;;5132288;28;20814;-63
2023/10/02 05:44:34;;;;;;;3.13;1.40;;;14.40;9.30;;;;;;5135527;28;20434;-64
2023/10/02 05:47:08;;;;;;;4.80;1.50;;;14.40;2.20;;;;;;5134959;28;20422;-63
2023/10/02 05:49:38;;;;;;;3.60;1.40;;;14.40;1.00;;;;;;5134868;28;20723;-61
2023/10/02 05:52:07;;;;;;;4.80;1.70;;;14.50;1.00;;;;;;5134843;28;20469;-64
2023/10/02 05:54:36;;;;;;;3.07;1.10;;;14.50;1.00;;;;;;5133582;28;20422;-63
2023/10/02 05:57:12;;;;;;;3.20;1.40;;;14.50;1.00;;;;;;5134845;28;20827;-63
2023/10/02 05:59:48;;;;;;;4.00;1.30;;;14.50;1.00;;;;;;5133054;28;20415;-63
2023/10/02 06:02:18;;;;;;;2.40;1.15;;;14.60;1.00;;;;;;5132957;28;20433;-65
2023/10/02 06:04:48;;;;;;;3.58;1.50;;;14.60;1.00;;;;;;5134576;28;20880;-64
2023/10/02 06:10:07;;;;;;;4.18;1.17;;;14.50;1.00;;;;;;5132530;28;20394;-64
2023/10/02 06:12:34;;;;;;;4.68;1.50;;;14.50;1.00;;;;;;5130657;27;20857;-63
2023/10/02 06:15:09;;;;;;;4.00;1.40;;;14.50;3.50;;;;;;5113017;27;20974;-64
2023/10/02 06:17:36;;;;;;;3.58;1.30;;;14.50;5.40;;;;;;5131735;27;20419;-62
2023/10/02 06:20:17;;;;;;;6.85;1.80;;;14.60;6.90;;;;;;5131291;27;20707;-64
2023/10/02 06:22:47;;;;;;;4.20;1.60;;;14.60;1.00;;;;;;5124292;27;20434;-63
2023/10/02 06:25:18;;;;;;;5.20;1.40;;;14.70;1.00;;;;;;5131424;27;20479;-63
2023/10/02 06:27:47;;;;;;;4.60;1.33;;;14.70;1.00;;;;;;5135328;27;20446;-63
2023/10/02 06:30:16;;;;;;;5.38;1.50;;;14.70;1.00;;;;;;5135179;27;20529;-63
2023/10/02 06:32:53;;;;;;;5.68;1.70;;;14.70;1.00;;;;;;5134944;27;20434;-64
2023/10/02 06:35:22;;;;;;;3.42;1.30;;;14.60;1.00;;;;;;5137389;27;20438;-63
2023/10/02 06:37:51;;;;;;;3.55;1.40;;;14.70;5.00;;;;;;5137716;27;20441;-64
2023/10/02 06:40:23;;;;;;;5.28;1.60;;;14.70;10.30;;;;;;5133169;27;20506;-65
2023/10/02 06:42:52;;;;;;;4.28;1.40;;;14.70;6.80;;;;;;5127897;27;20533;-62
2023/10/02 06:45:21;;;;;;;5.43;1.85;;;14.80;1.10;;;;;;5131349;27;20434;-63
2023/10/02 06:47:50;;;;;;;3.40;1.23;;;14.90;1.00;;;;;;5133757;27;20862;-61
2023/10/02 06:50:27;;;;;;;4.40;1.45;;;14.90;1.00;;;;;;5132448;27;20495;-64
2023/10/02 06:52:57;;;;;;;5.25;1.58;;;14.90;1.00;;;;;;5132515;27;20425;-63
2023/10/02 06:55:26;;;;;;;5.40;1.70;;;15.00;1.00;;;;;;5127167;27;20804;-63
2023/10/02 06:57:54;;;;;;;6.63;1.48;;;15.20;1.00;;;;;;5134456;27;20458;-63
2023/10/02 07:00:23;;;;;;;3.60;1.42;;;15.30;1.00;;;;;;5135866;27;20716;-65
2023/10/02 07:02:56;;;;;;;4.80;1.37;;;15.40;1.00;;;;;;5132179;27;20711;-58
2023/10/02 07:05:27;;;;;;;4.20;1.30;;;15.50;1.00;;;;;;5131164;27;20848;-60
2023/10/02 07:08:01;;;;;;;7.05;1.45;;;15.70;1.00;;;;;;5135130;27;20434;-58
2023/10/02 07:10:41;;;;;;;4.93;1.60;;;15.80;1.00;;;;;;5136189;27;20419;-61
2023/10/02 07:13:18;;;;;;;3.90;1.60;;;15.90;1.00;;;;;;5125899;27;20524;-57
2023/10/02 07:15:46;;;;;;;4.00;1.40;;;16.00;1.00;;;;;;5137677;27;20438;-57
2023/10/02 07:18:14;;;;;;;4.28;1.67;;;16.10;1.00;;;;;;5134106;27;20430;-57
2023/10/02 07:20:43;;;;;;;4.15;1.45;;;16.10;1.00;;;;;;5131333;27;20534;-55
2023/10/02 07:23:19;;;;;;;4.27;1.50;;;16.20;1.00;;;;;;5134015;27;20423;-56
2023/10/02 07:25:50;;;;;;;6.55;1.67;;;16.30;1.00;;;;;;5134080;27;20512;-55
2023/10/02 07:28:17;;;;;;;3.47;1.30;;;16.40;1.00;;;;;;5131981;27;20537;-56
2023/10/02 07:30:45;;;;;;;4.93;1.30;;;16.50;1.00;;;;;;5137061;27;20418;-56
2023/10/02 07:33:12;;;;;;;4.63;1.70;;;16.60;1.00;;;;;;5124362;27;20441;-58
2023/10/02 07:35:39;;;;;;;4.50;1.80;;;16.80;1.00;;;;;;5117213;27;20410;-58
2023/10/02 07:38:08;;;;;;;5.20;1.42;;;16.90;1.00;;;;;;5136085;27;20434;-56
2023/10/02 07:40:49;;;;;;;2.45;1.20;;;17.00;1.00;;;;;;5133197;27;20438;-59
2023/10/02 07:43:18;;;;;;;4.10;1.60;;;17.10;1.00;;;;;;5134169;27;20430;-57
2023/10/02 07:45:45;;;;;;;3.88;1.50;;;17.20;1.00;;;;;;5132455;27;20490;-56
2023/10/02 07:48:16;;;;;;;4.63;1.50;;;17.30;1.00;;;;;;5135403;27;20725;-58
2023/10/02 07:50:44;;;;;;;5.65;1.50;;;17.40;1.00;;;;;;5130870;27;20433;-55
2023/10/02 07:53:12;;;;;;;5.32;1.40;;;17.50;99.90;;;;;;5121091;27;21778;-57
2023/10/02 07:55:47;;;;;;;4.22;1.50;;;17.60;99.90;;;;;;5128070;27;20435;-54
2023/10/02 07:58:19;;;;;;;6.65;1.70;;;17.60;99.90;;;;;;5132938;27;20455;-59
2023/10/02 08:00:49;;;;;;;7.65;3.65;;;17.70;99.90;;;;;;5135062;27;20861;-54
2023/10/02 08:03:36;;;;;;;4.88;1.83;;;17.80;99.90;;;;;;5135957;27;20469;-55
2023/10/02 08:06:21;;;;;;;4.80;1.63;;;18.00;99.90;;;;;;5128507;27;20437;-57
2023/10/02 08:08:54;;;;;;;3.88;1.50;;;18.10;9.50;;;;;;5128556;27;20426;-57
2023/10/02 08:11:27;;;;;;;6.40;1.50;;;18.10;1.00;;;;;;5131086;27;20413;-57
2023/10/02 08:13:54;;;;;;;5.90;1.70;;;18.00;1.00;;;;;;5134372;27;20430;-55
2023/10/02 08:16:22;;;;;;;5.65;1.60;;;18.10;1.00;;;;;;5132058;27;20458;-57
2023/10/02 08:18:59;;;;;;;6.07;1.90;;;18.10;1.00;;;;;;5130625;27;20435;-57
2023/10/02 08:21:35;;;;;;;4.50;1.60;;;18.20;1.00;;;;;;5130007;27;20438;-57
2023/10/02 08:24:05;;;;;;;5.20;1.70;;;18.30;1.00;;;;;;5132665;27;20905;-56
2023/10/02 08:26:40;;;;;;;7.90;1.77;;;18.40;1.00;;;;;;5130336;27;20437;-55
2023/10/02 08:29:11;;;;;;;4.07;1.70;;;18.50;99.90;;;;;;5134741;27;20437;-58
2023/10/02 08:31:42;;;;;;;4.70;2.15;;;18.60;51.40;;;;;;5132582;27;20453;-57
2023/10/02 08:34:14;;;;;;;7.22;2.25;;;18.60;1.00;;;;;;5134108;27;20812;-58
2023/10/02 08:36:41;;;;;;;5.90;1.40;;;18.70;1.00;;;;;;5130694;27;20430;-57
2023/10/02 08:39:09;;;;;;;7.05;1.80;;;18.80;1.00;;;;;;5132702;27;20445;-57
2023/10/02 08:41:44;;;;;;;4.00;1.60;;;18.90;99.90;;;;;;5133367;27;20793;-57
2023/10/02 08:44:13;;;;;;;7.07;1.70;;;19.00;1.00;;;;;;5123604;27;20434;-58
2023/10/02 08:46:43;;;;;;;4.72;1.85;;;19.10;1.00;;;;;;5124696;27;20745;-58
2023/10/02 08:49:12;;;;;;;5.38;1.65;;;19.20;91.90;;;;;;5128294;27;20441;-59
2023/10/02 08:51:48;;;;;;;4.50;1.67;;;19.30;1.00;;;;;;5131321;27;20437;-58
2023/10/02 08:54:17;;;;;;;4.43;1.42;;;19.40;1.00;;;;;;5129882;27;20433;-59
2023/10/02 08:56:48;;;;;;;4.45;1.50;;;19.50;99.90;;;;;;5126011;27;20521;-59
2023/10/02 08:59:18;;;;;;;4.82;1.80;;;19.60;99.90;;;;;;5140861;27;20829;-58
2023/10/02 09:01:47;;;;;;;4.32;1.80;;;19.70;1.00;;;;;;5133096;27;20746;-59
2023/10/02 09:04:29;;;;;;;4.13;1.50;;;19.80;1.00;;;;;;5129844;27;20434;-59
2023/10/02 09:07:14;;;;;;;6.30;1.50;;;19.80;1.00;;;;;;5130531;27;20435;-58
2023/10/02 09:09:47;;;;;;;4.78;1.90;;;19.90;1.00;;;;;;5132899;27;20489;-59
2023/10/02 09:12:17;;;;;;;4.68;1.60;;;20.00;99.90;;;;;;5133686;27;20458;-59
2023/10/02 09:14:44;;;;;;;3.63;1.40;;;20.00;99.90;;;;;;5134282;27;20410;-59
2023/10/02 09:17:19;;;;;;;4.95;1.60;;;20.10;99.90;;;;;;5134855;27;20833;-59
2023/10/02 09:19:54;;;;;;;4.80;1.70;;;20.10;99.90;;;;;;5134890;27;20905;-58
2023/10/02 09:22:24;;;;;;;4.77;1.47;;;20.30;99.90;;;;;;5127203;27;20442;-58
2023/10/02 09:25:15;;;;;;;4.97;1.70;;;20.40;71.70;;;;;;5114715;28;20715;-58
2023/10/02 09:27:56;;;;;;;4.47;1.50;;;20.50;1.00;;;;;;5135207;27;20500;-57
2023/10/02 09:30:36;;;;;;;4.53;1.33;;;20.50;1.00;;;;;;5133557;27;20699;-57
2023/10/02 09:33:10;;;;;;;5.85;1.70;;;20.60;1.00;;;;;;5132880;27;20414;-57
2023/10/02 09:35:42;;;;;;;3.90;1.30;;;20.70;1.00;;;;;;5133696;27;20860;-58
2023/10/02 09:38:13;;;;;;;5.15;1.42;;;20.80;1.00;;;;;;5130707;27;20438;-58
2023/10/02 09:40:56;;;;;;;4.43;1.43;;;20.90;1.00;;;;;;5111102;27;21730;-57
2023/10/02 09:43:27;;;;;;;6.07;1.70;;;21.00;1.00;;;;;;5133314;28;20479;-56
2023/10/02 09:45:58;;;;;;;3.00;1.40;;;21.00;1.00;;;;;;5129772;27;20430;-57
2023/10/02 09:48:57;;;;;;;3.90;1.50;;;21.20;1.00;;;;;;5129075;28;20426;-57
2023/10/02 09:51:38;;;;;;;3.70;1.50;;;21.40;1.00;;;;;;5124520;28;20431;-57
2023/10/02 09:54:28;;;;;;;4.28;1.80;;;21.70;1.00;;;;;;5120317;28;20424;-54
2023/10/02 09:57:11;;;;;;;5.30;1.50;;;21.90;99.90;;;;;;5132968;27;20514;-54
2023/10/02 09:59:45;;;;;;;3.88;1.70;;;22.10;99.90;;;;;;5136540;27;20432;-57
2023/10/02 10:11:14;;;;;;;3.75;1.25;;;22.90;99.90;;;;;;5048755;28;20469;-57
2023/10/02 10:13:46;;;;;;;3.35;1.27;;;23.10;99.90;;;;;;5052520;28;20810;-59
2023/10/02 10:16:38;;;;;;;5.32;1.52;;;23.30;99.90;;;;;;5097529;27;20437;-59
2023/10/02 10:19:33;;;;;;;5.05;1.50;;;23.50;81.30;;;;;;5133781;27;20553;-59
2023/10/02 10:22:04;;;;;;;3.80;1.70;;;23.60;54.50;;;;;;5134630;27;20487;-58
2023/10/02 10:25:22;;;;;;;6.90;1.70;;;23.80;13.10;;;;;;5126360;27;20814;-59
2023/10/02 10:27:54;;;;;;;4.43;1.40;;;23.90;1.00;;;;;;5115679;28;20433;-59
2023/10/02 10:30:44;;;;;;;3.85;1.55;;;24.10;1.00;;;;;;5120796;27;20483;-58
2023/10/02 10:33:45;;;;;;;4.40;1.80;;;24.30;1.00;;;;;;5137460;27;20437;-60
2023/10/02 10:36:39;;;;;;;3.53;1.60;;;24.40;1.00;;;;;;5079568;27;20461;-59
2023/10/02 10:40:40;;;;;;;6.70;1.90;;;24.40;1.00;;;;;;5135106;27;22303;-59
2023/10/02 10:42:59;;;;;;;6.17;1.50;;;24.60;1.00;;;;;;5133681;27;20509;-59
2023/10/02 10:45:30;;;;;;;4.67;1.60;;;24.80;1.00;;;;;;5133421;27;20902;-59
2023/10/02 10:47:56;;;;;;;5.10;1.30;;;25.00;1.00;;;;;;5134531;27;20422;-59
2023/10/02 10:50:32;;;;;;;5.82;1.67;;;25.20;1.00;;;;;;5121944;27;20423;-59
2023/10/02 10:55:44;;;;;;;3.03;1.50;;;25.30;1.00;;;;;;5120782;27;20412;-60
2023/10/02 10:58:11;;;;;;;4.10;1.50;;;25.50;1.00;;;;;;5133370;27;20522;-62
2023/10/02 11:00:40;;;;;;;5.68;1.40;;;25.60;1.00;;;;;;5132368;27;20430;-58
2023/10/02 11:03:14;;;;;;;5.60;1.90;;;25.70;1.00;;;;;;5130652;27;20437;-59
2023/10/02 11:05:43;;;;;;;5.07;1.63;;;25.80;1.00;;;;;;5120895;27;20434;-59
2023/10/02 11:08:28;;;;;;;4.15;1.70;;;25.80;1.00;;;;;;5119975;27;20430;-59
2023/10/02 11:11:04;;;;;;;7.27;1.70;;;26.00;1.00;;;;;;5134443;27;20438;-59
2023/10/02 11:16:30;;;;;;;5.35;1.77;;;26.30;1.00;;;;;;5129025;27;20480;-59
2023/10/02 11:19:34;;;;;;;5.15;1.55;;;26.30;1.00;;;;;;5134395;27;20517;-60
2023/10/02 11:22:14;;;;;;;6.15;2.00;;;26.30;1.00;;;;;;5125784;27;20818;-59
2023/10/02 11:24:42;;;;;;;4.65;1.50;;;26.50;1.00;;;;;;5132353;27;20432;-59
2023/10/02 11:27:12;;;;;;;3.78;1.58;;;26.40;1.00;;;;;;5128590;27;20896;-59
2023/10/02 11:29:41;;;;;;;6.18;2.00;;;26.40;1.00;;;;;;5133295;27;20475;-59
2023/10/02 11:32:22;;;;;;;4.82;1.58;;;26.50;1.00;;;;;;5129778;27;20462;-59
2023/10/02 11:34:51;;;;;;;3.63;1.50;;;26.30;1.00;;;;;;5128758;27;20928;-60
2023/10/02 11:37:23;;;;;;;5.57;1.52;;;26.40;1.00;;;;;;5130975;27;20440;-59
2023/10/02 11:39:51;;;;;;;4.75;1.70;;;26.50;1.00;;;;;;5133955;27;20434;-58
2023/10/02 11:42:20;;;;;;;5.53;1.90;;;26.60;1.00;;;;;;5125032;27;20442;-59
2023/10/02 11:44:47;;;;;;;4.30;1.60;;;26.60;1.00;;;;;;5129822;27;20426;-57
2023/10/02 11:47:14;;;;;;;6.63;2.10;;;26.60;1.00;;;;;;5130720;27;20566;-58
2023/10/02 11:49:42;;;;;;;6.40;1.70;;;26.60;1.00;;;;;;5131045;27;20537;-58
2023/10/02 11:52:10;;;;;;;5.53;2.10;;;26.40;1.00;;;;;;5132415;27;20600;-59
2023/10/02 11:54:39;;;;;;;4.63;1.95;;;26.40;1.00;;;;;;5130841;27;20465;-58
2023/10/02 11:57:12;;;;;;;5.65;2.40;;;26.30;1.00;;;;;;5134788;27;20442;-58
2023/10/02 11:59:42;;;;;;;6.50;2.30;;;26.40;1.00;;;;;;5130563;27;20760;-59
2023/10/02 12:02:12;;;;;;;5.20;1.85;;;26.50;1.00;;;;;;5131208;27;20709;-59
2023/10/02 12:04:39;;;;;;;4.80;1.77;;;26.60;1.00;;;;;;5122341;27;20843;-59
2023/10/02 12:07:07;;;;;;;6.32;2.33;;;26.50;1.00;;;;;;5133342;27;20835;-59
2023/10/02 12:09:35;;;;;;;5.85;2.60;;;26.30;1.00;;;;;;5131091;27;20623;-59
2023/10/02 12:12:04;;;;;;;7.50;2.40;;;26.40;1.00;;;;;;5130064;27;20422;-59
2023/10/02 12:14:32;;;;;;;6.88;2.28;;;26.50;1.00;;;;;;5134631;27;20489;-59
2023/10/02 12:16:59;;;;;;;7.65;2.25;;;26.60;1.00;;;;;;5134732;27;20833;-59
2023/10/02 12:19:28;;;;;;;7.60;2.43;;;26.70;1.00;;;;;;5134021;27;20505;-59
2023/10/02 12:21:55;;;;;;;5.10;2.20;;;26.80;1.00;;;;;;5132928;27;20748;-59
2023/10/02 12:24:25;;;;;;;5.75;2.13;;;26.80;1.00;;;;;;5135243;27;20418;-58
2023/10/02 12:26:52;;;;;;;7.47;2.70;;;26.80;1.00;;;;;;5136440;27;20431;-58
2023/10/02 12:29:21;;;;;;;7.07;2.30;;;26.80;1.00;;;;;;5134253;27;20406;-58
2023/10/02 12:31:48;;;;;;;10.73;4.60;;;26.70;1.00;;;;;;5134012;27;20509;-59
2023/10/02 12:34:17;;;;;;;9.82;3.42;;;26.70;1.00;;;;;;5127658;27;20974;-58
2023/10/02 12:36:45;;;;;;;8.05;2.95;;;26.60;1.00;;;;;;5133250;27;20419;-58
2023/10/02 12:39:13;;;;;;;8.30;2.92;;;26.60;1.00;;;;;;5135490;27;20501;-59
2023/10/02 12:41:42;;;;;;;7.07;2.80;;;26.50;1.00;;;;;;5118979;27;20418;-59
2023/10/02 12:44:10;;;;;;;7.57;2.40;;;26.60;1.00;;;;;;5133161;27;20687;-59
2023/10/02 12:46:43;;;;;;;5.95;2.10;;;26.60;1.00;;;;;;5130544;27;20458;-59
2023/10/02 12:49:13;;;;;;;9.15;2.60;;;26.60;1.00;;;;;;5132726;27;20430;-58
2023/10/02 12:51:41;;;;;;;7.22;2.75;;;26.60;1.00;;;;;;5132488;27;20747;-60
2023/10/02 12:54:09;;;;;;;10.07;3.10;;;26.70;1.00;;;;;;5135438;27;20425;-60
2023/10/02 12:56:38;;;;;;;7.63;2.95;;;26.70;1.00;;;;;;5131626;27;20426;-60
2023/10/02 12:59:09;;;;;;;11.00;3.65;;;26.70;1.00;;;;;;5132547;27;20426;-58
2023/10/02 13:01:38;;;;;;;8.93;2.80;;;26.70;1.00;;;;;;5113002;28;20412;-58
2023/10/02 13:04:06;;;;;;;8.90;3.15;;;26.70;1.00;;;;;;5131113;27;20466;-59
2023/10/02 13:06:34;;;;;;;7.90;2.60;;;26.70;1.00;;;;;;5131190;27;21020;-58
2023/10/02 13:09:09;;;;;;;8.85;3.30;;;26.70;1.00;;;;;;5133185;27;20433;-59
2023/10/02 13:11:39;;;;;;;9.30;3.63;;;26.70;1.00;;;;;;5132707;27;20410;-60
2023/10/02 13:14:07;;;;;;;5.95;2.40;;;26.70;1.00;;;;;;5132698;27;20807;-60
2023/10/02 13:16:39;;;;;;;8.60;3.00;;;26.70;1.00;;;;;;5133384;27;20462;-60
2023/10/02 13:19:09;;;;;;;7.05;2.20;;;26.60;1.00;;;;;;5119812;27;20574;-60
2023/10/02 13:21:37;;;;;;;7.43;2.40;;;26.60;1.00;;;;;;5132258;27;20430;-59
2023/10/02 13:24:06;;;;;;;9.25;3.92;;;26.50;1.00;;;;;;5135065;27;20713;-60
2023/10/02 13:26:33;;;;;;;9.90;4.20;;;26.50;1.00;;;;;;5130578;27;20426;-59
2023/10/02 13:29:00;;;;;;;6.82;3.10;;;26.50;1.00;;;;;;5132199;27;20583;-60
2023/10/02 13:31:27;;;;;;;7.35;2.55;;;26.50;1.00;;;;;;5132288;27;20448;-59
2023/10/02 13:33:56;;;;;;;8.30;3.33;;;26.50;1.00;;;;;;5133559;27;20422;-59
2023/10/02 13:36:24;;;;;;;10.50;3.13;;;26.50;1.00;;;;;;5134657;27;20416;-60
2023/10/02 13:38:53;;;;;;;6.30;2.40;;;26.50;1.00;;;;;;5132278;27;21122;-59
2023/10/02 13:41:22;;;;;;;8.65;3.67;;;26.60;1.00;;;;;;5132910;27;20814;-59
2023/10/02 13:43:52;;;;;;;6.43;2.67;;;26.60;1.00;;;;;;5133237;27;20816;-59
2023/10/02 13:46:20;;;;;;;9.70;2.80;;;26.60;1.00;;;;;;5134878;28;20430;-59
2023/10/02 13:48:49;;;;;;;8.18;2.88;;;26.60;1.00;;;;;;5134991;28;20738;-59
2023/10/02 13:51:17;;;;;;;11.20;3.75;;;26.60;1.00;;;;;;5125474;28;20432;-59
2023/10/02 13:53:45;;;;;;;6.55;2.90;;;26.50;1.00;;;;;;5126618;28;20425;-59
2023/10/02 13:56:16;;;;;;;8.70;3.28;;;26.50;1.00;;;;;;5128263;28;20539;-60
2023/10/02 13:58:48;;;;;;;9.57;3.63;;;26.40;1.00;;;;;;5117344;28;20852;-59